Time;durP1;ratioP1;P1;durP2;ratioP2;P2;SDS_P1;SDS_P2;PMS_P1;PMS_P2;Temp;Humidity;BMP_temperature;BMP_pressure;BME280_temperature;BME280_humidity;BME280_pressure;Samples;Min_cycle;Max_cycle;Signal;HPM_P1;HPM_P2
2023/04/13 00:00:12;;;;;;;0.45;0.45;;;;;;;;;;1044156;28;20021;-20
2023/04/13 00:00:43;;;;;;;0.32;0.30;;;;;;;;;;1043420;28;20032;-20
2023/04/13 00:01:14;;;;;;;3.13;1.08;;;;;;;;;;1043953;28;20048;-19
2023/04/13 00:01:47;;;;;;;1.35;0.63;;;;;;;;;;1043900;28;20465;-20
2023/04/13 00:02:18;;;;;;;0.40;0.40;;;;;;;;;;1043601;28;20042;-20
2023/04/13 00:02:54;;;;;;;1.25;0.60;;;;;;;;;;1043886;28;20477;-20
2023/04/13 00:03:26;;;;;;;0.50;0.50;;;;;;;;;;1044195;28;20029;-20
2023/04/13 00:03:56;;;;;;;0.30;0.30;;;;;;;;;;1039612;28;20511;-20
2023/04/13 00:04:30;;;;;;;0.85;0.52;;;;;;;;;;1039352;28;20036;-20
2023/04/13 00:05:02;;;;;;;0.77;0.52;;;;;;;;;;1038247;28;20026;-20
2023/04/13 00:05:33;;;;;;;3.47;0.90;;;;;;;;;;1039027;28;20037;-20
2023/04/13 00:06:04;;;;;;;0.85;0.77;;;;;;;;;;1043060;28;20032;-20
2023/04/13 00:06:37;;;;;;;1.35;0.50;;;;;;;;;;1043986;28;20025;-20
2023/04/13 00:07:13;;;;;;;0.38;0.30;;;;;;;;;;1043796;28;20531;-20
2023/04/13 00:07:44;;;;;;;0.75;0.68;;;;;;;;;;1043928;28;20032;-19
2023/04/13 00:08:15;;;;;;;4.85;1.27;;;;;;;;;;1043473;28;20021;-19
2023/04/13 00:08:46;;;;;;;0.20;0.20;;;;;;;;;;1043383;28;20032;-20
2023/04/13 00:09:17;;;;;;;4.68;1.23;;;;;;;;;;1044337;28;20021;-20
2023/04/13 00:09:49;;;;;;;3.90;1.63;;;;;;;;;;1044035;28;20485;-20
2023/04/13 00:10:20;;;;;;;1.10;0.98;;;;;;;;;;1044133;28;20472;-20
2023/04/13 00:10:52;;;;;;;1.15;0.77;;;;;;;;;;1043875;28;20112;-20
2023/04/13 00:11:22;;;;;;;1.60;0.80;;;;;;;;;;1043227;28;20027;-20
2023/04/13 00:11:53;;;;;;;0.32;0.32;;;;;;;;;;1043686;28;20396;-20
2023/04/13 00:12:24;;;;;;;1.63;0.88;;;;;;;;;;1043740;28;20485;-20
2023/04/13 00:12:57;;;;;;;1.27;0.70;;;;;;;;;;1044052;28;20469;-20
2023/04/13 00:13:27;;;;;;;0.95;0.88;;;;;;;;;;1043952;28;20036;-20
2023/04/13 00:13:58;;;;;;;0.45;0.45;;;;;;;;;;1043230;28;20071;-20
2023/04/13 00:14:34;;;;;;;1.55;0.38;;;;;;;;;;1043420;28;20507;-20
2023/04/13 00:15:04;;;;;;;3.90;1.15;;;;;;;;;;1044241;28;20517;-20
2023/04/13 00:15:36;;;;;;;0.65;0.40;;;;;;;;;;1044011;28;20021;-20
2023/04/13 00:16:12;;;;;;;0.20;0.20;;;;;;;;;;1043121;28;20395;-19
2023/04/13 00:16:42;;;;;;;0.30;0.30;;;;;;;;;;1043699;28;20020;-20
2023/04/13 00:17:13;;;;;;;0.10;0.10;;;;;;;;;;1043560;28;20385;-20
2023/04/13 00:17:44;;;;;;;0.55;0.28;;;;;;;;;;1043219;28;20381;-18
2023/04/13 00:18:15;;;;;;;0.20;0.20;;;;;;;;;;1039678;28;20032;-20
2023/04/13 00:18:45;;;;;;;8.48;0.80;;;;;;;;;;1035500;28;20026;-20
2023/04/13 00:19:16;;;;;;;1.48;0.73;;;;;;;;;;1034300;28;20092;-18
2023/04/13 00:19:47;;;;;;;0.47;0.47;;;;;;;;;;1035377;28;20037;-20
2023/04/13 00:20:17;;;;;;;0.75;0.40;;;;;;;;;;1038995;28;20116;-20
2023/04/13 00:20:48;;;;;;;1.23;0.50;;;;;;;;;;1039199;28;20025;-20
2023/04/13 00:21:19;;;;;;;0.20;0.20;;;;;;;;;;1039524;28;20533;-20
2023/04/13 00:21:51;;;;;;;0.95;0.43;;;;;;;;;;1039568;28;20026;-20
2023/04/13 00:22:22;;;;;;;0.80;0.20;;;;;;;;;;1040144;28;20033;-20
2023/04/13 00:22:53;;;;;;;1.80;1.33;;;;;;;;;;1042939;28;20153;-20
2023/04/13 00:23:23;;;;;;;2.92;1.80;;;;;;;;;;1039443;28;21430;-20
2023/04/13 00:23:54;;;;;;;3.75;1.33;;;;;;;;;;1039667;28;20025;-20
2023/04/13 00:24:24;;;;;;;1.42;1.13;;;;;;;;;;1038682;28;20028;-20
2023/04/13 00:24:56;;;;;;;0.47;0.47;;;;;;;;;;1039507;28;20079;-20
2023/04/13 00:25:28;;;;;;;8.35;1.05;;;;;;;;;;1043796;28;20492;-20
2023/04/13 00:26:00;;;;;;;0.50;0.50;;;;;;;;;;1043257;28;20100;-20
2023/04/13 00:26:30;;;;;;;1.98;0.77;;;;;;;;;;1043268;28;20434;-20
2023/04/13 00:27:01;;;;;;;1.10;1.02;;;;;;;;;;1043921;28;20056;-20
2023/04/13 00:27:32;;;;;;;4.10;1.20;;;;;;;;;;1043965;28;20404;-20
2023/04/13 00:28:05;;;;;;;6.75;2.03;;;;;;;;;;1044216;28;20520;-20
2023/04/13 00:28:35;;;;;;;3.40;0.85;;;;;;;;;;1043644;28;20052;-19
2023/04/13 00:29:06;;;;;;;0.30;0.30;;;;;;;;;;1043480;28;20021;-19
2023/04/13 00:29:37;;;;;;;1.30;1.20;;;;;;;;;;1043303;28;20393;-20
2023/04/13 00:30:08;;;;;;;3.03;1.38;;;;;;;;;;1044079;28;20032;-20
2023/04/13 00:30:39;;;;;;;3.95;0.95;;;;;;;;;;1042951;28;20023;-20
2023/04/13 00:31:10;;;;;;;6.25;1.90;;;;;;;;;;1043803;28;21175;-19
2023/04/13 00:31:40;;;;;;;4.38;1.50;;;;;;;;;;1043909;28;20052;-20
2023/04/13 00:32:11;;;;;;;5.45;2.25;;;;;;;;;;1042937;28;20111;-20
2023/04/13 00:32:43;;;;;;;0.82;0.65;;;;;;;;;;1043278;28;20466;-20
2023/04/13 00:33:13;;;;;;;0.40;0.35;;;;;;;;;;1044043;28;20024;-20
2023/04/13 00:33:44;;;;;;;17.83;1.17;;;;;;;;;;1043084;28;20481;-20
2023/04/13 00:34:14;;;;;;;5.25;1.17;;;;;;;;;;1043831;28;20033;-20
2023/04/13 00:34:45;;;;;;;1.50;0.95;;;;;;;;;;1043299;28;20107;-20
2023/04/13 00:35:23;;;;;;;1.15;1.00;;;;;;;;;;1043887;28;20017;-20
2023/04/13 00:35:54;;;;;;;0.38;0.38;;;;;;;;;;1043376;28;20381;-20
2023/04/13 00:36:26;;;;;;;3.67;0.82;;;;;;;;;;1043252;28;20021;-20
2023/04/13 00:36:56;;;;;;;3.38;1.83;;;;;;;;;;1043880;28;20051;-20
2023/04/13 00:37:29;;;;;;;3.42;1.67;;;;;;;;;;1043522;28;20556;-20
2023/04/13 00:38:01;;;;;;;2.80;1.05;;;;;;;;;;1043056;28;20400;-19
2023/04/13 00:38:32;;;;;;;4.03;0.85;;;;;;;;;;1042557;28;20028;-19
2023/04/13 00:39:03;;;;;;;2.15;1.65;;;;;;;;;;1043880;28;20499;-20
2023/04/13 00:39:33;;;;;;;1.90;0.88;;;;;;;;;;1043834;28;20496;-20
2023/04/13 00:40:06;;;;;;;2.42;1.17;;;;;;;;;;1043804;28;20032;-20
2023/04/13 00:40:37;;;;;;;1.08;1.00;;;;;;;;;;1043382;28;20083;-20
2023/04/13 00:41:07;;;;;;;3.05;2.40;;;;;;;;;;1042979;28;20025;-20
2023/04/13 00:41:38;;;;;;;2.22;1.23;;;;;;;;;;1041885;28;20074;-20
2023/04/13 00:42:08;;;;;;;6.05;1.77;;;;;;;;;;1042791;28;20198;-20
2023/04/13 00:42:41;;;;;;;3.75;1.55;;;;;;;;;;1043611;28;20025;-20
2023/04/13 00:43:12;;;;;;;6.43;2.53;;;;;;;;;;1043475;28;20021;-19
2023/04/13 00:43:43;;;;;;;3.17;1.73;;;;;;;;;;1043088;28;20072;-20
2023/04/13 00:44:14;;;;;;;2.35;2.10;;;;;;;;;;1043131;28;20032;-20
2023/04/13 00:44:45;;;;;;;2.22;1.55;;;;;;;;;;1042826;28;20091;-20
2023/04/13 00:45:16;;;;;;;2.15;1.27;;;;;;;;;;1043753;28;20025;-20
2023/04/13 00:45:47;;;;;;;2.50;1.90;;;;;;;;;;1042571;28;20025;-20
2023/04/13 00:46:18;;;;;;;5.43;2.88;;;;;;;;;;1043842;28;20115;-20
2023/04/13 00:46:49;;;;;;;1.05;0.77;;;;;;;;;;1043162;28;20052;-20
2023/04/13 00:47:25;;;;;;;1.65;1.10;;;;;;;;;;1043954;28;20029;-20
2023/04/13 00:47:57;;;;;;;4.85;1.52;;;;;;;;;;1043028;28;20546;-20
2023/04/13 00:48:27;;;;;;;7.32;1.75;;;;;;;;;;1043710;28;20495;-20
2023/04/13 00:49:00;;;;;;;3.40;1.20;;;;;;;;;;1039067;28;20029;-20
2023/04/13 00:49:34;;;;;;;11.90;2.70;;;;;;;;;;1038771;28;20033;-20
2023/04/13 00:50:05;;;;;;;12.38;2.90;;;;;;;;;;1038513;28;20021;-20
2023/04/13 00:50:36;;;;;;;5.32;1.13;;;;;;;;;;1039438;28;20107;-20
2023/04/13 00:51:06;;;;;;;10.02;2.08;;;;;;;;;;1043627;28;20119;-20
2023/04/13 00:51:37;;;;;;;5.50;2.13;;;;;;;;;;1043749;28;20025;-20
2023/04/13 00:52:10;;;;;;;6.57;2.30;;;;;;;;;;1043256;28;20051;-18
2023/04/13 00:52:41;;;;;;;3.33;2.15;;;;;;;;;;1042779;28;20063;-20
2023/04/13 00:53:12;;;;;;;5.30;1.67;;;;;;;;;;1043232;28;20547;-20
2023/04/13 00:53:43;;;;;;;2.50;1.20;;;;;;;;;;1043195;28;20029;-20
2023/04/13 00:54:15;;;;;;;1.52;1.15;;;;;;;;;;1043790;28;20698;-20
2023/04/13 00:54:50;;;;;;;1.55;1.45;;;;;;;;;;1043685;28;20025;-20
2023/04/13 00:55:20;;;;;;;10.45;1.95;;;;;;;;;;1043396;28;20024;-20
2023/04/13 00:55:52;;;;;;;7.32;2.70;;;;;;;;;;1043150;28;20393;-20
2023/04/13 00:56:26;;;;;;;14.60;4.25;;;;;;;;;;1043239;28;20032;-20
2023/04/13 00:56:57;;;;;;;6.45;1.77;;;;;;;;;;1042652;28;20082;-20
2023/04/13 00:57:28;;;;;;;1.67;1.48;;;;;;;;;;1043053;28;20024;-20
2023/04/13 00:58:00;;;;;;;17.20;1.95;;;;;;;;;;1043803;28;20461;-20
2023/04/13 00:58:31;;;;;;;2.30;1.98;;;;;;;;;;1043853;28;20029;-20
2023/04/13 00:59:02;;;;;;;7.03;1.73;;;;;;;;;;1043248;28;20033;-20
2023/04/13 00:59:33;;;;;;;5.15;2.58;;;;;;;;;;1043781;28;20024;-20
2023/04/13 01:00:08;;;;;;;8.50;1.98;;;;;;;;;;1044025;28;20556;-19
2023/04/13 01:00:41;;;;;;;10.73;2.03;;;;;;;;;;1043334;28;20020;-19
2023/04/13 01:01:12;;;;;;;14.02;3.50;;;;;;;;;;1043495;28;20128;-20
2023/04/13 01:01:45;;;;;;;5.45;1.40;;;;;;;;;;1043689;28;20036;-20
2023/04/13 01:02:16;;;;;;;7.88;1.42;;;;;;;;;;1043089;28;20052;-20
2023/04/13 01:02:46;;;;;;;3.30;2.25;;;;;;;;;;1043379;28;20530;-19
2023/04/13 01:03:17;;;;;;;8.73;2.58;;;;;;;;;;1043895;28;20466;-19
2023/04/13 01:03:48;;;;;;;18.08;4.68;;;;;;;;;;1043440;28;20033;-20
2023/04/13 01:04:18;;;;;;;7.72;5.72;;;;;;;;;;1043626;28;20021;-19
2023/04/13 01:04:49;;;;;;;9.80;5.13;;;;;;;;;;1042085;28;20028;-20
2023/04/13 01:05:20;;;;;;;16.00;7.13;;;;;;;;;;1043089;28;20024;-20
2023/04/13 01:05:55;;;;;;;8.98;4.47;;;;;;;;;;1043687;28;20071;-20
2023/04/13 01:06:30;;;;;;;6.72;5.22;;;;;;;;;;1043907;28;20070;-20
2023/04/13 01:07:21;;;;;;;25.23;4.50;;;;;;;;;;1043719;28;20047;-19
2023/04/13 01:08:07;;;;;;;11.80;5.13;;;;;;;;;;1025700;28;20057;-20
2023/04/13 01:08:44;;;;;;;4.60;2.13;;;;;;;;;;1042837;28;20050;-20
2023/04/13 01:09:16;;;;;;;9.95;4.25;;;;;;;;;;1043875;28;20029;-20
2023/04/13 01:09:53;;;;;;;7.35;3.13;;;;;;;;;;1043767;28;20120;-20
2023/04/13 01:10:29;;;;;;;6.05;2.40;;;;;;;;;;1042539;28;20025;-20
2023/04/13 01:11:03;;;;;;;6.63;2.40;;;;;;;;;;1042132;28;20389;-20
2023/04/13 01:11:38;;;;;;;15.32;2.50;;;;;;;;;;1043041;28;20512;-20
2023/04/13 01:12:09;;;;;;;2.65;1.65;;;;;;;;;;1043497;28;20039;-20
2023/04/13 01:12:42;;;;;;;4.63;1.70;;;;;;;;;;1043348;28;20025;-20
2023/04/13 01:13:20;;;;;;;8.25;3.00;;;;;;;;;;1043000;28;20381;-20
2023/04/13 01:13:55;;;;;;;10.38;2.35;;;;;;;;;;1042186;28;20036;-20
2023/04/13 01:14:32;;;;;;;6.60;3.17;;;;;;;;;;1043207;28;20433;-20
2023/04/13 01:15:07;;;;;;;4.63;3.50;;;;;;;;;;1043285;28;20029;-21
2023/04/13 01:15:41;;;;;;;9.43;4.40;;;;;;;;;;1043515;28;20024;-20
2023/04/13 01:16:23;;;;;;;10.77;4.57;;;;;;;;;;1042917;28;20025;-20
2023/04/13 01:16:56;;;;;;;27.90;4.70;;;;;;;;;;1041767;28;20033;-20
2023/04/13 01:17:29;;;;;;;7.70;4.40;;;;;;;;;;1041942;28;20028;-20
2023/04/13 01:18:06;;;;;;;9.48;3.00;;;;;;;;;;1043724;28;20035;-20
2023/04/13 01:18:38;;;;;;;10.55;3.33;;;;;;;;;;1042966;28;20021;-20
2023/04/13 01:19:21;;;;;;;10.90;3.28;;;;;;;;;;1041569;28;20086;-20
2023/04/13 01:20:11;;;;;;;10.60;3.88;;;;;;;;;;1042391;28;20404;-20
2023/04/13 01:20:43;;;;;;;15.75;5.72;;;;;;;;;;1042524;28;20127;-19
2023/04/13 01:21:15;;;;;;;7.03;3.88;;;;;;;;;;1043823;28;20031;-20
2023/04/13 01:21:47;;;;;;;19.10;3.88;;;;;;;;;;1043277;28;20019;-20
2023/04/13 01:22:22;;;;;;;11.63;6.53;;;;;;;;;;1043701;28;20033;-20
2023/04/13 01:22:57;;;;;;;10.20;5.57;;;;;;;;;;1043939;28;20074;-20
2023/04/13 01:23:39;;;;;;;9.23;3.85;;;;;;;;;;1041327;28;20035;-20
2023/04/13 01:24:17;;;;;;;9.27;2.80;;;;;;;;;;1040388;28;20032;-20
2023/04/13 01:25:06;;;;;;;1.92;1.15;;;;;;;;;;1041686;28;20032;-20
2023/04/13 01:25:37;;;;;;;2.63;1.92;;;;;;;;;;1043069;28;20111;-20
2023/04/13 01:26:08;;;;;;;8.27;2.58;;;;;;;;;;1041707;28;20021;-20
2023/04/13 01:27:11;;;;;;;4.82;2.72;;;;;;;;;;1040013;28;20571;-20
2023/04/13 01:27:43;;;;;;;13.02;2.53;;;;;;;;;;1034416;28;20417;-20
2023/04/13 01:28:14;;;;;;;11.10;4.15;;;;;;;;;;1031862;28;20076;-20
2023/04/13 01:28:45;;;;;;;9.68;2.75;;;;;;;;;;1029370;28;20033;-20
2023/04/13 01:29:17;;;;;;;6.63;3.80;;;;;;;;;;1033152;28;20034;-20
2023/04/13 01:29:49;;;;;;;12.70;3.25;;;;;;;;;;1035811;28;20034;-20
2023/04/13 01:30:21;;;;;;;8.98;2.95;;;;;;;;;;1042384;28;20033;-20
2023/04/13 01:30:52;;;;;;;3.67;2.38;;;;;;;;;;1039528;28;20119;-20
2023/04/13 01:31:23;;;;;;;4.70;2.33;;;;;;;;;;1040356;28;20029;-20
2023/04/13 01:31:54;;;;;;;14.05;3.70;;;;;;;;;;1039179;28;20055;-20
2023/04/13 01:32:26;;;;;;;7.15;4.25;;;;;;;;;;1040131;28;20025;-20
2023/04/13 01:32:58;;;;;;;9.10;3.58;;;;;;;;;;1040553;28;20048;-20
2023/04/13 01:33:29;;;;;;;8.65;3.03;;;;;;;;;;1041362;28;20036;-20
2023/04/13 01:34:00;;;;;;;5.18;2.50;;;;;;;;;;1041531;28;20487;-20
2023/04/13 01:34:30;;;;;;;7.68;3.10;;;;;;;;;;1039977;28;20036;-20
2023/04/13 01:35:09;;;;;;;6.90;2.88;;;;;;;;;;1040009;28;20079;-20
2023/04/13 01:35:40;;;;;;;5.75;3.42;;;;;;;;;;1040301;28;20040;-20
2023/04/13 01:36:11;;;;;;;10.00;2.63;;;;;;;;;;1040427;28;20032;-20
2023/04/13 01:36:42;;;;;;;23.35;6.20;;;;;;;;;;1039420;28;20488;-20
2023/04/13 01:37:13;;;;;;;5.03;2.70;;;;;;;;;;1039179;28;20032;-21
2023/04/13 01:37:44;;;;;;;12.32;4.10;;;;;;;;;;1039455;28;20043;-20
2023/04/13 01:38:14;;;;;;;43.78;4.15;;;;;;;;;;1036782;28;20127;-20
2023/04/13 01:38:45;;;;;;;16.02;4.93;;;;;;;;;;1037075;28;21627;-20
2023/04/13 01:39:20;;;;;;;4.18;3.10;;;;;;;;;;1039122;28;20055;-20
2023/04/13 01:39:51;;;;;;;9.25;3.35;;;;;;;;;;1037716;28;20124;-20
2023/04/13 01:40:24;;;;;;;11.38;3.45;;;;;;;;;;1041750;28;20025;-20
2023/04/13 01:40:56;;;;;;;26.17;6.22;;;;;;;;;;1041307;28;21220;-20
2023/04/13 01:41:27;;;;;;;7.32;4.72;;;;;;;;;;1040479;28;20118;-18
2023/04/13 01:41:58;;;;;;;6.60;3.28;;;;;;;;;;1036747;28;20065;-19
2023/04/13 01:42:28;;;;;;;15.00;6.18;;;;;;;;;;1038720;28;20021;-20
2023/04/13 01:42:59;;;;;;;14.23;4.55;;;;;;;;;;1035693;28;20095;-20
2023/04/13 01:43:31;;;;;;;13.35;4.03;;;;;;;;;;1037666;28;20025;-20
2023/04/13 01:44:01;;;;;;;6.95;2.97;;;;;;;;;;1041865;28;20115;-20
2023/04/13 01:44:32;;;;;;;6.93;3.58;;;;;;;;;;1041225;28;20016;-20
2023/04/13 01:45:04;;;;;;;7.55;4.15;;;;;;;;;;1040335;28;20098;-19
2023/04/13 01:45:47;;;;;;;6.50;3.58;;;;;;;;;;1042366;28;20103;-20
2023/04/13 01:46:20;;;;;;;9.98;5.35;;;;;;;;;;1041621;28;20025;-20
2023/04/13 01:46:53;;;;;;;15.32;5.68;;;;;;;;;;1038050;28;20032;-20
2023/04/13 01:47:24;;;;;;;8.57;2.88;;;;;;;;;;1036536;28;20739;-20
2023/04/13 01:47:58;;;;;;;8.70;3.90;;;;;;;;;;1037779;28;20029;-20
2023/04/13 01:48:34;;;;;;;18.55;4.38;;;;;;;;;;1035125;28;20032;-20
2023/04/13 01:49:07;;;;;;;8.88;4.10;;;;;;;;;;1036114;28;20623;-19
2023/04/13 01:49:38;;;;;;;10.07;5.43;;;;;;;;;;1037177;28;20047;-20
2023/04/13 01:50:18;;;;;;;4.10;2.88;;;;;;;;;;1035991;28;20520;-20
2023/04/13 01:50:51;;;;;;;7.82;4.18;;;;;;;;;;1035119;28;20564;-20
2023/04/13 01:51:23;;;;;;;16.85;4.30;;;;;;;;;;1036768;28;20482;-20
2023/04/13 01:51:55;;;;;;;11.32;3.72;;;;;;;;;;1037354;28;20029;-21
2023/04/13 01:52:26;;;;;;;23.13;4.15;;;;;;;;;;1036703;28;20095;-20
2023/04/13 01:52:58;;;;;;;10.88;3.42;;;;;;;;;;1040008;28;20025;-20
2023/04/13 01:53:33;;;;;;;13.48;6.10;;;;;;;;;;1039787;28;20428;-20
2023/04/13 01:54:04;;;;;;;40.63;7.88;;;;;;;;;;1040943;28;20539;-20
2023/04/13 01:54:35;;;;;;;12.68;6.70;;;;;;;;;;1039747;28;20029;-20
2023/04/13 01:55:06;;;;;;;18.25;6.95;;;;;;;;;;1041651;28;21156;-20
2023/04/13 01:55:40;;;;;;;41.90;9.70;;;;;;;;;;1041595;28;20476;-20
2023/04/13 01:56:12;;;;;;;18.17;8.40;;;;;;;;;;1041789;28;20033;-19
2023/04/13 01:56:43;;;;;;;20.55;9.40;;;;;;;;;;1041849;28;20025;-20
2023/04/13 01:57:16;;;;;;;26.60;8.70;;;;;;;;;;1042022;28;20668;-20
2023/04/13 01:57:48;;;;;;;25.80;9.65;;;;;;;;;;1040730;28;20467;-20
2023/04/13 01:58:19;;;;;;;27.80;8.57;;;;;;;;;;1038320;28;20188;-20
2023/04/13 01:58:52;;;;;;;21.65;9.80;;;;;;;;;;1036676;28;20029;-20
2023/04/13 01:59:22;;;;;;;33.28;9.23;;;;;;;;;;1037281;28;21493;-20
2023/04/13 01:59:53;;;;;;;21.77;9.43;;;;;;;;;;1038561;28;20029;-20
2023/04/13 02:00:30;;;;;;;26.95;11.07;;;;;;;;;;1041077;28;20041;-20
2023/04/13 02:01:06;;;;;;;26.13;7.75;;;;;;;;;;1038110;28;20031;-20
2023/04/13 02:01:37;;;;;;;18.20;8.07;;;;;;;;;;1038017;28;20116;-20
2023/04/13 02:02:08;;;;;;;15.50;7.30;;;;;;;;;;1036640;28;20074;-20
2023/04/13 02:02:39;;;;;;;14.10;6.70;;;;;;;;;;1035979;28;20033;-20
2023/04/13 02:03:10;;;;;;;15.20;8.10;;;;;;;;;;1040209;28;20409;-20
2023/04/13 02:03:42;;;;;;;23.55;6.78;;;;;;;;;;1036980;28;20032;-20
2023/04/13 02:04:13;;;;;;;24.20;7.35;;;;;;;;;;1038129;28;20124;-20
2023/04/13 02:04:43;;;;;;;19.20;8.57;;;;;;;;;;1036828;28;20527;-20
2023/04/13 02:05:14;;;;;;;15.15;6.95;;;;;;;;;;1036299;28;20039;-20
2023/04/13 02:05:47;;;;;;;18.50;6.10;;;;;;;;;;1041073;28;20078;-21
2023/04/13 02:06:19;;;;;;;15.75;4.38;;;;;;;;;;1036459;28;20022;-20
2023/04/13 02:06:50;;;;;;;16.55;6.93;;;;;;;;;;1037702;28;20481;-20
2023/04/13 02:07:22;;;;;;;12.80;4.63;;;;;;;;;;1037126;28;20048;-20
2023/04/13 02:07:53;;;;;;;6.32;2.88;;;;;;;;;;1036508;28;20047;-20
2023/04/13 02:08:24;;;;;;;6.75;3.40;;;;;;;;;;1039864;28;20036;-20
2023/04/13 02:08:54;;;;;;;8.15;3.42;;;;;;;;;;1041262;28;20362;-20
2023/04/13 02:09:27;;;;;;;31.95;3.70;;;;;;;;;;1042460;28;20032;-20
2023/04/13 02:09:58;;;;;;;13.10;5.22;;;;;;;;;;1043170;28;20036;-20
2023/04/13 02:10:28;;;;;;;20.45;5.38;;;;;;;;;;1042965;28;20025;-20
2023/04/13 02:11:02;;;;;;;20.45;4.82;;;;;;;;;;1040505;28;20147;-20
2023/04/13 02:11:33;;;;;;;6.47;2.03;;;;;;;;;;1041502;28;20056;-20
2023/04/13 02:12:05;;;;;;;5.50;1.80;;;;;;;;;;1040544;28;20033;-20
2023/04/13 02:12:36;;;;;;;7.15;2.15;;;;;;;;;;1041361;28;20024;-20
2023/04/13 02:13:08;;;;;;;12.13;3.58;;;;;;;;;;1040890;28;20029;-20
2023/04/13 02:13:38;;;;;;;35.08;3.38;;;;;;;;;;1040504;28;20029;-20
2023/04/13 02:14:09;;;;;;;3.63;2.13;;;;;;;;;;1040929;28;20033;-20
2023/04/13 02:14:41;;;;;;;7.40;2.88;;;;;;;;;;1041399;28;20029;-20
2023/04/13 02:15:12;;;;;;;3.05;2.35;;;;;;;;;;1041404;28;20035;-20
2023/04/13 02:15:43;;;;;;;3.67;2.55;;;;;;;;;;1041528;28;20025;-20
2023/04/13 02:16:14;;;;;;;7.82;2.72;;;;;;;;;;1042539;28;20037;-20
2023/04/13 02:16:45;;;;;;;8.63;3.42;;;;;;;;;;1041681;28;20559;-20
2023/04/13 02:17:16;;;;;;;27.35;2.80;;;;;;;;;;1042056;28;20034;-20
2023/04/13 02:17:47;;;;;;;8.63;2.58;;;;;;;;;;1042756;28;20558;-20
2023/04/13 02:18:18;;;;;;;2.65;2.33;;;;;;;;;;1043170;28;20030;-20
2023/04/13 02:18:49;;;;;;;13.98;2.53;;;;;;;;;;1042980;28;20552;-20
2023/04/13 02:19:20;;;;;;;5.40;2.38;;;;;;;;;;1042679;28;20396;-20
2023/04/13 02:19:51;;;;;;;3.17;1.70;;;;;;;;;;1042543;28;20037;-20
2023/04/13 02:20:21;;;;;;;2.83;1.50;;;;;;;;;;1042540;28;20163;-20
2023/04/13 02:21:01;;;;;;;20.65;2.80;;;;;;;;;;1042056;28;20036;-20
2023/04/13 02:21:33;;;;;;;3.95;1.38;;;;;;;;;;1043002;28;20638;-20
2023/04/13 02:22:04;;;;;;;3.25;1.98;;;;;;;;;;1042790;28;20031;-20
2023/04/13 02:22:35;;;;;;;1.77;1.20;;;;;;;;;;1042510;28;20535;-20
2023/04/13 02:23:07;;;;;;;7.55;2.50;;;;;;;;;;1040842;28;20423;-20
2023/04/13 02:23:39;;;;;;;6.45;2.50;;;;;;;;;;1042748;28;20083;-20
2023/04/13 02:24:10;;;;;;;11.38;4.82;;;;;;;;;;1040710;28;20095;-20
2023/04/13 02:24:41;;;;;;;4.35;3.03;;;;;;;;;;1042865;28;20024;-20
2023/04/13 02:25:11;;;;;;;6.47;3.30;;;;;;;;;;1041035;28;20029;-20
2023/04/13 02:25:42;;;;;;;12.02;5.10;;;;;;;;;;1041747;28;20561;-20
2023/04/13 02:26:15;;;;;;;11.02;4.30;;;;;;;;;;1041357;28;20412;-20
2023/04/13 02:26:45;;;;;;;11.43;4.80;;;;;;;;;;1042153;28;20480;-20
2023/04/13 02:27:16;;;;;;;17.85;2.90;;;;;;;;;;1043118;28;20063;-20
2023/04/13 02:27:47;;;;;;;38.22;2.75;;;;;;;;;;1042987;28;20028;-20
2023/04/13 02:28:19;;;;;;;7.40;2.97;;;;;;;;;;1043426;28;20060;-20
2023/04/13 02:28:50;;;;;;;11.48;4.47;;;;;;;;;;1042332;28;20033;-20
2023/04/13 02:29:21;;;;;;;18.10;2.03;;;;;;;;;;1042300;28;20025;-20
2023/04/13 02:29:51;;;;;;;12.98;1.90;;;;;;;;;;1041503;28;20052;-18
2023/04/13 02:30:22;;;;;;;5.00;2.85;;;;;;;;;;1040530;28;20473;-19
2023/04/13 02:30:55;;;;;;;10.18;2.53;;;;;;;;;;1041689;28;20025;-19
2023/04/13 02:31:26;;;;;;;2.72;1.67;;;;;;;;;;1041258;28;20036;-19
2023/04/13 02:31:57;;;;;;;6.30;3.97;;;;;;;;;;1042296;28;20036;-19
2023/04/13 02:32:30;;;;;;;10.80;4.63;;;;;;;;;;1037864;28;20596;-19
2023/04/13 02:33:00;;;;;;;12.80;4.93;;;;;;;;;;1038266;28;20040;-18
2023/04/13 02:33:32;;;;;;;5.88;3.28;;;;;;;;;;1039167;28;20065;-20
2023/04/13 02:34:03;;;;;;;12.55;3.80;;;;;;;;;;1034513;28;20091;-20
2023/04/13 02:34:34;;;;;;;33.05;4.70;;;;;;;;;;1033485;28;20120;-19
2023/04/13 02:35:07;;;;;;;8.25;3.58;;;;;;;;;;1033043;28;20833;-18
2023/04/13 02:35:43;;;;;;;6.55;4.13;;;;;;;;;;1030721;28;20026;-18
2023/04/13 02:36:17;;;;;;;14.48;3.50;;;;;;;;;;1031945;28;20549;-20
2023/04/13 02:36:49;;;;;;;7.20;2.83;;;;;;;;;;1034234;28;20084;-20
2023/04/13 02:37:20;;;;;;;8.85;3.83;;;;;;;;;;1035185;28;20030;-20
2023/04/13 02:37:50;;;;;;;4.13;3.45;;;;;;;;;;1039460;28;20029;-20
2023/04/13 02:38:21;;;;;;;4.57;2.53;;;;;;;;;;1042479;28;20081;-20
2023/04/13 02:38:53;;;;;;;6.05;2.80;;;;;;;;;;1041821;28;20166;-21
2023/04/13 02:39:24;;;;;;;3.75;2.95;;;;;;;;;;1041774;28;20450;-21
2023/04/13 02:39:54;;;;;;;15.00;3.67;;;;;;;;;;1041799;28;20367;-20
2023/04/13 02:40:27;;;;;;;5.70;3.10;;;;;;;;;;1039889;28;20032;-20
2023/04/13 02:41:01;;;;;;;1.58;1.42;;;;;;;;;;1041615;28;20438;-18
2023/04/13 02:41:31;;;;;;;14.75;3.08;;;;;;;;;;1041379;28;20035;-19
2023/04/13 02:42:03;;;;;;;10.50;3.70;;;;;;;;;;1041812;28;20475;-19
2023/04/13 02:42:35;;;;;;;13.27;5.00;;;;;;;;;;1040889;28;20033;-19
2023/04/13 02:43:06;;;;;;;7.93;4.35;;;;;;;;;;1036771;28;20120;-19
2023/04/13 02:43:37;;;;;;;9.00;3.78;;;;;;;;;;1039965;28;20075;-19
2023/04/13 02:44:10;;;;;;;15.05;5.57;;;;;;;;;;1036305;28;20025;-19
2023/04/13 02:44:43;;;;;;;4.47;2.35;;;;;;;;;;1032380;28;20519;-19
2023/04/13 02:45:16;;;;;;;5.72;2.13;;;;;;;;;;1031442;28;20048;-19
2023/04/13 02:45:48;;;;;;;8.18;3.80;;;;;;;;;;1029750;28;20018;-19
2023/04/13 02:46:22;;;;;;;9.52;4.10;;;;;;;;;;1034194;28;20525;-21
2023/04/13 02:46:52;;;;;;;9.15;4.15;;;;;;;;;;1037114;28;20026;-20
2023/04/13 02:47:23;;;;;;;28.45;5.05;;;;;;;;;;1041620;28;20486;-20
2023/04/13 02:47:53;;;;;;;8.95;3.65;;;;;;;;;;1035156;28;20466;-22
2023/04/13 02:48:25;;;;;;;4.25;1.92;;;;;;;;;;1038047;28;20030;-20
2023/04/13 02:48:56;;;;;;;9.80;3.10;;;;;;;;;;1035890;28;20396;-19
2023/04/13 02:49:27;;;;;;;15.68;5.35;;;;;;;;;;1035481;28;21333;-19
2023/04/13 02:50:01;;;;;;;13.63;5.15;;;;;;;;;;1040737;28;20514;-19
2023/04/13 02:50:31;;;;;;;8.07;2.65;;;;;;;;;;1041971;28;20040;-20
2023/04/13 02:51:03;;;;;;;19.85;3.35;;;;;;;;;;1037526;28;20573;-20
2023/04/13 02:51:34;;;;;;;6.97;3.80;;;;;;;;;;1035174;28;20413;-20
2023/04/13 02:52:05;;;;;;;3.30;2.15;;;;;;;;;;1037156;28;20042;-20
2023/04/13 02:52:36;;;;;;;15.60;3.67;;;;;;;;;;1037760;28;20452;-20
2023/04/13 02:53:08;;;;;;;8.98;2.92;;;;;;;;;;1039475;28;20021;-20
2023/04/13 02:53:40;;;;;;;5.60;2.00;;;;;;;;;;1041627;28;20439;-19
2023/04/13 02:54:13;;;;;;;8.20;3.17;;;;;;;;;;1034555;28;20033;-20
2023/04/13 02:54:46;;;;;;;10.23;4.35;;;;;;;;;;1033433;28;20101;-21
2023/04/13 02:55:18;;;;;;;10.80;3.33;;;;;;;;;;1033591;28;20037;-21
2023/04/13 02:55:52;;;;;;;14.43;5.10;;;;;;;;;;1031168;28;20177;-19
2023/04/13 02:56:29;;;;;;;8.95;3.17;;;;;;;;;;1033893;28;20030;-20
2023/04/13 02:57:01;;;;;;;13.52;4.63;;;;;;;;;;1032532;28;20030;-22
2023/04/13 02:57:33;;;;;;;12.05;2.70;;;;;;;;;;1034578;28;20120;-20
2023/04/13 02:58:08;;;;;;;8.98;2.20;;;;;;;;;;1035882;28;20146;-22
2023/04/13 02:58:43;;;;;;;8.55;3.05;;;;;;;;;;1034823;28;20073;-19
2023/04/13 02:59:20;;;;;;;7.55;3.38;;;;;;;;;;1035060;28;20026;-21
2023/04/13 02:59:59;;;;;;;7.20;2.45;;;;;;;;;;1031074;28;20056;-21
2023/04/13 03:00:32;;;;;;;7.00;2.33;;;;;;;;;;1034248;28;20497;-21
2023/04/13 03:01:05;;;;;;;21.13;2.55;;;;;;;;;;1034904;28;20033;-20
2023/04/13 03:01:45;;;;;;;10.30;3.25;;;;;;;;;;1039822;28;20067;-20
2023/04/13 03:02:18;;;;;;;5.95;3.45;;;;;;;;;;1034647;28;20029;-21
2023/04/13 03:03:02;;;;;;;26.00;3.95;;;;;;;;;;1032359;28;20116;-20
2023/04/13 03:03:40;;;;;;;13.80;3.83;;;;;;;;;;1033590;28;20446;-21
2023/04/13 03:04:17;;;;;;;5.13;2.30;;;;;;;;;;1034619;28;20724;-19
2023/04/13 03:04:53;;;;;;;5.30;2.13;;;;;;;;;;1030076;28;20571;-20
2023/04/13 03:05:27;;;;;;;22.73;3.40;;;;;;;;;;1029034;28;20059;-20
2023/04/13 03:06:00;;;;;;;11.77;2.67;;;;;;;;;;1025294;28;20695;-20
2023/04/13 03:06:33;;;;;;;7.65;2.65;;;;;;;;;;1039517;28;20021;-20
2023/04/13 03:07:09;;;;;;;7.93;2.35;;;;;;;;;;1037781;28;20029;-20
2023/04/13 03:07:41;;;;;;;15.88;2.67;;;;;;;;;;1035690;28;20037;-20
2023/04/13 03:08:13;;;;;;;5.13;2.30;;;;;;;;;;1034230;28;20025;-20
2023/04/13 03:08:45;;;;;;;20.00;2.35;;;;;;;;;;1033239;28;20486;-20
2023/04/13 03:09:16;;;;;;;4.32;2.13;;;;;;;;;;1039820;28;20025;-20
2023/04/13 03:09:47;;;;;;;11.25;2.85;;;;;;;;;;1041620;28;20125;-21
2023/04/13 03:10:21;;;;;;;16.75;3.50;;;;;;;;;;1042365;28;20098;-20
2023/04/13 03:10:58;;;;;;;5.43;2.08;;;;;;;;;;1038598;28;20422;-20
2023/04/13 03:11:36;;;;;;;3.33;1.40;;;;;;;;;;1038195;28;20025;-20
2023/04/13 03:12:11;;;;;;;3.28;2.35;;;;;;;;;;1034840;28;20089;-20
2023/04/13 03:12:46;;;;;;;10.95;2.13;;;;;;;;;;1033011;28;20050;-20
2023/04/13 03:13:23;;;;;;;6.57;3.47;;;;;;;;;;1030383;28;20374;-21
2023/04/13 03:14:00;;;;;;;11.50;1.92;;;;;;;;;;1027375;28;20039;-18